Latest Weather Observations for Colpoys Point

IDW60801

Issued at 5:23 am WST Wednesday 23 October 2019 (issued every 10 minutes, with the page automatically refreshed every 10 minutes)

About weather observations | Map of weather stations | Latest weather observations for WA | Other Formats
Station Details ID: 009255 Name: COLPOYS POINT Lat: -32.23 Lon: 115.70 Height: 3.0 m
Data from the previous 72 hours. | See also: Recent months for locations in Western Australia
Date/Time
WST
Temp
°C
App
Temp
°C
Dew
Point
°C
Rel
Hum
%
Delta-T
°C
Wind Press
QNH
hPa
Press
MSL
hPa
Rain since
9am
mm
Dir  Spd
km/h
Gust
km/h
Spd
kts
Gust
kts
23/05:00am - - - - - WSW 17 19 9 10 - - -
23/04:30am - - - - - WSW 15 19 8 10 - - -
23/04:00am - - - - - WSW 17 20 9 11 - - -
23/03:30am - - - - - WSW 13 17 7 9 - - -
23/03:00am - - - - - WSW 15 17 8 9 - - -
23/02:30am - - - - - WSW 19 26 10 14 - - -
23/02:00am - - - - - WSW 19 28 10 15 - - -
23/01:30am - - - - - WSW 19 28 10 15 - - -
23/01:00am - - - - - WSW 15 19 8 10 - - -
23/12:30am - - - - - WSW 15 19 8 10 - - -
23/12:00am - - - - - WSW 19 22 10 12 - - -
 
Date/Time
WST
Temp
°C
App
Temp
°C
Dew
Point
°C
Rel
Hum
%
Delta-T
°C
Wind Press
QNH
hPa
Press
MSL
hPa
Rain since
9am
mm
Dir  Spd
km/h
Gust
km/h
Spd
kts
Gust
kts
22/11:30pm - - - - - WSW 17 22 9 12 - - -
22/11:00pm - - - - - WSW 15 19 8 10 - - -
22/10:30pm - - - - - SW 13 17 7 9 - - -
22/10:00pm - - - - - WSW 15 19 8 10 - - -
22/09:30pm - - - - - SW 19 24 10 13 - - -
22/09:00pm - - - - - SW 20 26 11 14 - - -
22/08:30pm - - - - - SW 17 20 9 11 - - -
22/08:00pm - - - - - SW 17 22 9 12 - - -
22/07:30pm - - - - - SW 20 26 11 14 - - -
22/07:00pm - - - - - SW 19 24 10 13 - - -
22/06:30pm - - - - - SW 20 26 11 14 - - -
22/06:00pm - - - - - SW 20 26 11 14 - - -
22/05:30pm - - - - - SW 20 26 11 14 - - -
22/05:00pm - - - - - SW 24 28 13 15 - - -
22/04:30pm - - - - - SW 26 30 14 16 - - -
22/04:00pm - - - - - SW 28 33 15 18 - - -
22/03:30pm - - - - - SW 26 32 14 17 - - -
22/03:00pm - - - - - SW 26 32 14 17 - - -
22/02:30pm - - - - - SW 24 33 13 18 - - -
22/02:00pm - - - - - SW 22 28 12 15 - - -
22/01:30pm - - - - - WSW 22 32 12 17 - - -
22/01:00pm - - - - - WSW 26 30 14 16 - - -
22/12:30pm - - - - - WSW 22 30 12 16 - - -
22/12:00pm - - - - - SW 19 22 10 12 - - -
22/11:30am - - - - - SW 17 22 9 12 - - -
22/11:00am - - - - - SW 19 26 10 14 - - -
22/10:30am - - - - - SW 20 24 11 13 - - -
22/10:00am - - - - - SW 19 24 10 13 - - -
22/09:30am - - - - - SSW 15 19 8 10 - - -
22/09:00am - - - - - SE 9 11 5 6 - - -
22/08:30am - - - - - SE 7 9 4 5 - - -
22/08:00am - - - - - SE 11 15 6 8 - - -
22/07:30am - - - - - SSE 13 15 7 8 - - -
22/07:00am - - - - - SSE 17 20 9 11 - - -
22/06:30am - - - - - SSE 17 19 9 10 - - -
22/06:00am - - - - - SSE 17 19 9 10 - - -
22/05:30am - - - - - S 17 20 9 11 - - -
22/05:00am - - - - - SSE 17 19 9 10 - - -
22/04:30am - - - - - SSE 22 26 12 14 - - -
22/04:00am - - - - - S 24 28 13 15 - - -
22/03:30am - - - - - SSE 20 24 11 13 - - -
22/03:00am - - - - - SSE 20 24 11 13 - - -
22/02:30am - - - - - S 19 22 10 12 - - -
22/02:00am - - - - - S 19 20 10 11 - - -
22/01:30am - - - - - SSE 19 22 10 12 - - -
22/01:00am - - - - - SSE 20 24 11 13 - - -
22/12:30am - - - - - SSE 17 19 9 10 - - -
22/12:00am - - - - - SSE 17 19 9 10 - - -
 
Date/Time
WST
Temp
°C
App
Temp
°C
Dew
Point
°C
Rel
Hum
%
Delta-T
°C
Wind Press
QNH
hPa
Press
MSL
hPa
Rain since
9am
mm
Dir  Spd
km/h
Gust
km/h
Spd
kts
Gust
kts
21/11:30pm - - - - - S 26 30 14 16 - - -
21/11:00pm - - - - - S 24 28 13 15 - - -
21/10:30pm - - - - - SSW 22 26 12 14 - - -
21/10:00pm - - - - - SSW 20 26 11 14 - - -
21/09:30pm - - - - - SSW 22 28 12 15 - - -
21/09:00pm - - - - - SSW 24 28 13 15 - - -
21/08:30pm - - - - - SSW 24 28 13 15 - - -
21/08:00pm - - - - - SSW 24 28 13 15 - - -
21/07:30pm - - - - - SW 22 28 12 15 - - -
21/07:00pm - - - - - SW 20 26 11 14 - - -
21/06:30pm - - - - - SW 22 26 12 14 - - -
21/06:00pm - - - - - SSW 20 26 11 14 - - -
21/05:30pm - - - - - SW 22 28 12 15 - - -
21/05:00pm - - - - - SW 20 28 11 15 - - -
21/04:30pm - - - - - SW 20 32 11 17 - - -
21/04:00pm - - - - - WSW 20 28 11 15 - - -
21/03:30pm - - - - - WSW 20 28 11 15 - - -
21/03:00pm - - - - - SW 22 30 12 16 - - -
21/02:30pm - - - - - WSW 20 26 11 14 - - -
21/02:00pm - - - - - SW 17 26 9 14 - - -
21/01:30pm - - - - - SW 15 20 8 11 - - -
21/01:00pm - - - - - SW 19 26 10 14 - - -
21/12:30pm - - - - - SW 17 26 9 14 - - -
21/12:00pm - - - - - SW 15 20 8 11 - - -
21/11:30am - - - - - SSW 15 19 8 10 - - -
21/11:00am - - - - - SSW 11 17 6 9 - - -
21/10:30am - - - - - S 13 17 7 9 - - -
21/10:00am - - - - - ESE 13 15 7 8 - - -
21/09:30am - - - - - ESE 9 13 5 7 - - -
21/09:00am - - - - - ESE 9 13 5 7 - - -
21/08:30am - - - - - ESE 9 11 5 6 - - -
21/08:00am - - - - - ESE 11 13 6 7 - - -
21/07:30am - - - - - ESE 13 15 7 8 - - -
21/07:00am - - - - - ESE 13 15 7 8 - - -
21/06:30am - - - - - ESE 11 13 6 7 - - -
21/06:00am - - - - - SSE 11 13 6 7 - - -
21/05:30am - - - - - SSE 11 13 6 7 - - -
21/05:00am - - - - - SE 11 13 6 7 - - -
21/04:30am - - - - - SSE 11 13 6 7 - - -
21/04:00am - - - - - S 17 24 9 13 - - -
21/03:30am - - - - - SSW 19 20 10 11 - - -
21/03:00am - - - - - S 19 24 10 13 - - -
21/02:30am - - - - - SSW 19 22 10 12 - - -
21/02:00am - - - - - SSW 19 22 10 12 - - -
21/01:30am - - - - - SSW 19 22 10 12 - - -
21/01:00am - - - - - SW 17 20 9 11 - - -
21/12:30am - - - - - SW 15 17 8 9 - - -
21/12:00am - - - - - SW 13 17 7 9 - - -
 
Date/Time
WST
Temp
°C
App
Temp
°C
Dew
Point
°C
Rel
Hum
%
Delta-T
°C
Wind Press
QNH
hPa
Press
MSL
hPa
Rain since
9am
mm
Dir  Spd
km/h
Gust
km/h
Spd
kts
Gust
kts
20/11:30pm - - - - - SW 15 17 8 9 - - -
20/11:00pm - - - - - SW 13 15 7 8 - - -
20/10:30pm - - - - - SSW 13 13 7 7 - - -
20/10:00pm - - - - - SSW 15 17 8 9 - - -
20/09:30pm - - - - - SW 17 20 9 11 - - -
20/09:00pm - - - - - SW 19 24 10 13 - - -
20/08:30pm - - - - - WSW 15 22 8 12 - - -
20/08:00pm - - - - - SW 15 19 8 10 - - -
20/07:30pm - - - - - W 13 15 7 8 - - -
20/07:00pm - - - - - W 15 19 8 10 - - -
20/06:30pm - - - - - WSW 13 19 7 10 - - -
20/06:00pm - - - - - WSW 13 17 7 9 - - -
20/05:30pm - - - - - W 15 19 8 10 - - -
20/05:00pm - - - - - W 15 19 8 10 - - -
20/04:30pm - - - - - WNW 13 19 7 10 - - -
20/04:00pm - - - - - WNW 15 20 8 11 - - -
20/03:30pm - - - - - NW 17 26 9 14 - - -
20/03:00pm - - - - - NNW 17 30 9 16 - - -
20/02:30pm - - - - - NNW 20 32 11 17 - - -
20/02:00pm - - - - - NNW 20 30 11 16 - - -
20/01:30pm - - - - - NNW 22 35 12 19 - - -
20/01:00pm - - - - - NNW 22 32 12 17 - - -
20/12:30pm - - - - - NNW 22 33 12 18 - - -
20/12:00pm - - - - - NNW 22 37 12 20 - - -
20/11:30am - - - - - NNW 24 35 13 19 - - -
20/11:00am - - - - - NNW 24 39 13 21 - - -
20/10:30am - - - - - N 28 41 15 22 - - -
20/10:00am - - - - - N 26 37 14 20 - - -
20/09:30am - - - - - N 30 35 16 19 - - -
20/09:00am - - - - - N 33 39 18 21 - - -
20/08:30am - - - - - N 33 37 18 20 - - -
20/08:00am - - - - - N 33 37 18 20 - - -
20/07:30am - - - - - N 35 43 19 23 - - -
20/07:00am - - - - - NNE 35 41 19 22 - - -
20/06:30am - - - - - NNE 35 39 19 21 - - -
20/06:00am - - - - - NNE 33 39 18 21 - - -
20/05:30am - - - - - NNE 37 43 20 23 - - -

Other formats

Comma delimited format used in spreadsheet applications
http://www.bom.gov.au/fwo/IDW60801/IDW60801.99255.axf

JavaScript Object Notation format (JSON) in row-major order
http://www.bom.gov.au/fwo/IDW60801/IDW60801.99255.json

Data quality

Most of these data are generated automatically and are frequently updated. Quality checks on data are not normally performed. It is possible for incorrect values to appear. Refer to information at About Latest Weather Observations and please check the disclaimer before using these data.